Time;durP1;ratioP1;P1;durP2;ratioP2;P2;SDS_P1;SDS_P2;PMS_P1;PMS_P2;Temp;Humidity;BMP_temperature;BMP_pressure;BME280_temperature;BME280_humidity;BME280_pressure;Samples;Min_cycle;Max_cycle;Signal;HPM_P1;HPM_P2
2022/04/30 00:01:19;;;;;;;6.73;6.13;;;12.20;74.70;;;;;;6306132;28;20979;-68
2022/04/30 00:04:24;;;;;;;6.93;6.23;;;12.20;75.20;;;;;;6305831;28;20997;-68
2022/04/30 00:07:27;;;;;;;6.10;5.60;;;12.10;75.40;;;;;;6304501;28;20500;-69
2022/04/30 00:10:31;;;;;;;6.43;5.83;;;12.10;75.90;;;;;;6304074;28;20957;-69
2022/04/30 00:13:38;;;;;;;7.00;5.87;;;12.10;76.30;;;;;;6279861;28;20478;-69
2022/04/30 00:16:41;;;;;;;6.10;5.60;;;12.10;76.20;;;;;;6274420;28;20572;-69
2022/04/30 00:19:45;;;;;;;6.23;5.63;;;12.00;76.10;;;;;;6279397;28;21068;-69
2022/04/30 00:22:49;;;;;;;5.90;5.30;;;12.00;76.50;;;;;;6278967;28;21258;-69
2022/04/30 00:25:53;;;;;;;8.63;5.60;;;11.90;76.50;;;;;;6279331;28;20470;-69
2022/04/30 00:28:57;;;;;;;6.67;6.07;;;11.90;77.30;;;;;;6279049;28;20474;-69
2022/04/30 00:32:03;;;;;;;7.13;6.17;;;11.80;78.60;;;;;;6278645;28;20477;-69
2022/04/30 00:35:08;;;;;;;6.27;5.50;;;11.80;78.30;;;;;;6278759;28;20549;-69
2022/04/30 00:38:11;;;;;;;5.30;4.90;;;11.60;78.60;;;;;;6277800;28;21102;-69
2022/04/30 00:41:15;;;;;;;6.13;5.63;;;11.60;79.20;;;;;;6278098;28;20532;-69
2022/04/30 00:44:19;;;;;;;5.77;5.17;;;11.60;79.40;;;;;;6279474;28;20481;-69
2022/04/30 00:47:22;;;;;;;5.20;4.53;;;11.60;79.40;;;;;;6323025;28;20469;-68
2022/04/30 00:50:29;;;;;;;8.00;6.00;;;11.60;79.70;;;;;;6327756;28;20483;-69
2022/04/30 00:53:34;;;;;;;5.93;5.43;;;11.60;79.90;;;;;;6328226;28;20461;-68
2022/04/30 00:56:43;;;;;;;5.43;4.93;;;11.60;79.70;;;;;;6327808;28;20448;-68
2022/04/30 00:59:49;;;;;;;6.37;5.77;;;11.60;80.00;;;;;;6328696;28;20449;-68
2022/04/30 01:02:52;;;;;;;5.40;5.00;;;11.50;80.00;;;;;;6327899;28;20475;-68
2022/04/30 01:05:58;;;;;;;6.00;5.40;;;11.50;80.40;;;;;;6309274;28;20465;-68
2022/04/30 01:09:01;;;;;;;6.03;5.47;;;11.50;80.70;;;;;;6302481;28;20484;-68
2022/04/30 01:12:09;;;;;;;10.67;5.80;;;11.40;81.10;;;;;;6288711;28;20455;-66
2022/04/30 01:15:12;;;;;;;6.63;5.23;;;11.40;81.20;;;;;;6277001;28;20961;-69
2022/04/30 01:18:16;;;;;;;8.43;6.17;;;11.30;82.30;;;;;;6286781;28;20466;-69
2022/04/30 01:21:23;;;;;;;8.37;5.77;;;11.30;82.10;;;;;;6301426;28;20481;-69
2022/04/30 01:24:30;;;;;;;6.90;6.30;;;11.20;82.30;;;;;;6306148;28;20478;-68
2022/04/30 01:27:35;;;;;;;7.40;5.67;;;11.20;82.70;;;;;;6312510;28;20465;-68
2022/04/30 01:30:39;;;;;;;6.53;5.90;;;11.20;82.80;;;;;;6309436;28;20462;-69
2022/04/30 01:40:28;;;;;;;6.30;5.60;;;11.20;83.00;;;;;;6303765;28;20469;-69
2022/04/30 01:43:33;;;;;;;8.17;6.27;;;11.10;83.20;;;;;;6302031;28;20485;-68
2022/04/30 01:46:37;;;;;;;5.60;5.20;;;11.00;83.50;;;;;;6301679;28;20506;-69
2022/04/30 01:49:40;;;;;;;6.00;5.40;;;10.90;84.00;;;;;;6302443;28;20568;-69
2022/04/30 01:52:43;;;;;;;5.90;5.40;;;10.90;84.50;;;;;;6301653;28;20469;-69
2022/04/30 01:55:48;;;;;;;7.40;5.70;;;10.90;84.60;;;;;;6301733;28;20462;-69
2022/04/30 01:58:51;;;;;;;7.10;5.50;;;10.90;85.00;;;;;;6301857;28;20484;-69
2022/04/30 02:01:54;;;;;;;6.03;5.43;;;10.90;85.10;;;;;;6301869;28;20489;-69
2022/04/30 02:05:00;;;;;;;7.80;5.50;;;10.80;85.20;;;;;;6302307;28;20480;-68
2022/04/30 02:08:07;;;;;;;5.50;5.00;;;10.80;85.30;;;;;;6301770;28;20867;-68
2022/04/30 02:11:12;;;;;;;7.97;6.13;;;10.80;85.60;;;;;;6302242;28;20497;-68
2022/04/30 02:14:17;;;;;;;6.17;5.33;;;10.80;85.70;;;;;;6301718;28;21071;-68
2022/04/30 02:17:21;;;;;;;6.73;6.13;;;10.80;85.70;;;;;;6301487;28;20476;-69
2022/04/30 02:20:29;;;;;;;9.60;5.80;;;10.80;85.70;;;;;;6301741;28;20474;-69
2022/04/30 02:23:33;;;;;;;6.10;5.50;;;10.70;86.20;;;;;;6293530;28;20470;-68
2022/04/30 02:26:37;;;;;;;6.90;5.83;;;10.60;86.40;;;;;;6303222;28;20442;-69
2022/04/30 02:29:40;;;;;;;6.77;6.07;;;10.60;86.50;;;;;;6302319;28;20457;-69
2022/04/30 02:32:46;;;;;;;5.33;4.87;;;10.60;86.80;;;;;;6300897;28;20790;-68
2022/04/30 02:35:49;;;;;;;6.87;6.27;;;10.50;86.90;;;;;;6301156;28;20536;-69
2022/04/30 02:38:52;;;;;;;5.40;4.90;;;10.50;86.90;;;;;;6301576;28;20453;-68
2022/04/30 02:41:57;;;;;;;6.23;5.53;;;10.50;87.40;;;;;;6301296;28;20462;-69
2022/04/30 02:45:00;;;;;;;6.27;5.53;;;10.40;87.50;;;;;;6301630;28;20476;-68
2022/04/30 02:48:03;;;;;;;6.90;6.30;;;10.40;87.90;;;;;;6304822;28;20963;-70
2022/04/30 02:51:07;;;;;;;6.43;5.67;;;10.30;88.00;;;;;;6306846;28;20473;-69
2022/04/30 02:54:10;;;;;;;6.33;5.77;;;10.20;88.70;;;;;;6305837;28;20468;-69
2022/04/30 02:57:15;;;;;;;7.00;6.30;;;10.20;89.10;;;;;;6306109;28;20496;-69
2022/04/30 03:00:19;;;;;;;6.30;5.73;;;10.20;90.10;;;;;;6305664;28;20579;-69
2022/04/30 03:03:24;;;;;;;6.33;5.83;;;10.10;89.80;;;;;;6305721;28;20469;-69
2022/04/30 03:06:27;;;;;;;7.03;6.40;;;10.10;90.00;;;;;;6305596;28;20480;-69
2022/04/30 03:09:31;;;;;;;6.60;6.00;;;10.10;90.10;;;;;;6305700;28;20465;-69
2022/04/30 03:12:36;;;;;;;7.00;6.40;;;10.00;90.30;;;;;;6306238;28;20484;-68
2022/04/30 03:15:40;;;;;;;7.67;6.33;;;10.00;90.30;;;;;;6305699;28;20468;-69
2022/04/30 03:22:10;;;;;;;7.60;6.90;;;10.00;90.60;;;;;;6267170;28;20489;-68
2022/04/30 03:25:13;;;;;;;8.50;6.93;;;9.90;91.20;;;;;;6305198;28;20477;-68
2022/04/30 03:28:18;;;;;;;7.53;6.83;;;9.90;91.30;;;;;;6301402;28;20480;-69
2022/04/30 03:31:21;;;;;;;8.80;7.90;;;9.90;91.40;;;;;;6305467;28;20535;-69
2022/04/30 03:34:24;;;;;;;7.20;6.47;;;9.80;91.50;;;;;;6305665;28;20473;-68
2022/04/30 03:37:28;;;;;;;6.70;6.03;;;9.80;91.60;;;;;;6306279;28;20810;-69
2022/04/30 03:40:31;;;;;;;6.70;6.10;;;9.80;91.60;;;;;;6306152;28;20469;-69
2022/04/30 03:43:35;;;;;;;8.10;6.03;;;9.70;91.70;;;;;;6305286;28;20472;-67
2022/04/30 03:46:38;;;;;;;7.13;6.47;;;9.70;92.20;;;;;;6304867;28;20934;-67
2022/04/30 03:49:42;;;;;;;7.07;6.30;;;9.60;91.90;;;;;;6305272;28;20523;-68
2022/04/30 03:52:45;;;;;;;7.30;6.07;;;9.70;92.00;;;;;;6305905;28;20476;-68
2022/04/30 03:55:48;;;;;;;7.53;6.83;;;9.60;92.10;;;;;;6304996;28;20795;-69
2022/04/30 03:58:52;;;;;;;9.20;6.37;;;9.60;92.10;;;;;;6304385;28;20941;-69
2022/04/30 04:01:55;;;;;;;5.40;5.00;;;9.60;92.20;;;;;;6304488;28;20496;-68
2022/04/30 04:04:59;;;;;;;6.83;6.13;;;9.60;92.70;;;;;;6304621;28;20473;-68
2022/04/30 04:08:10;;;;;;;6.77;6.17;;;9.70;92.40;;;;;;6304800;28;20469;-68
2022/04/30 04:11:15;;;;;;;7.43;6.77;;;9.70;92.20;;;;;;6304693;28;20496;-68
2022/04/30 04:17:41;;;;;;;7.00;5.40;;;9.70;92.10;;;;;;6346956;28;20437;-68
2022/04/30 04:20:44;;;;;;;7.47;6.70;;;9.70;92.10;;;;;;6345074;28;20445;-70
2022/04/30 04:27:08;;;;;;;8.23;7.00;;;9.80;92.30;;;;;;6330814;28;20469;-69
2022/04/30 04:30:13;;;;;;;7.13;5.73;;;9.80;92.30;;;;;;6325356;28;20495;-69
2022/04/30 04:33:16;;;;;;;8.70;6.10;;;9.80;92.30;;;;;;6330132;28;20476;-68
2022/04/30 04:36:19;;;;;;;7.87;7.07;;;9.90;92.60;;;;;;6333172;28;20472;-68
2022/04/30 04:39:22;;;;;;;7.40;6.70;;;10.00;91.60;;;;;;6332901;28;20483;-68
2022/04/30 04:42:25;;;;;;;8.80;5.90;;;10.00;91.40;;;;;;6330135;28;20485;-69
2022/04/30 04:45:30;;;;;;;6.50;5.80;;;10.10;91.30;;;;;;6329453;28;20475;-68
2022/04/30 04:48:35;;;;;;;7.47;6.57;;;10.10;91.20;;;;;;6326487;28;20468;-69
2022/04/30 04:51:38;;;;;;;7.57;5.80;;;10.30;91.30;;;;;;6310785;28;20906;-69
2022/04/30 04:54:42;;;;;;;6.87;6.27;;;10.40;91.00;;;;;;6309522;28;20956;-68
2022/04/30 04:57:45;;;;;;;7.10;6.43;;;10.50;90.60;;;;;;6304992;28;20530;-68
2022/04/30 05:00:50;;;;;;;6.27;5.77;;;10.60;90.40;;;;;;6303638;28;20465;-68
2022/04/30 05:03:53;;;;;;;6.73;6.20;;;10.70;90.30;;;;;;6297378;28;20462;-68
2022/04/30 05:06:57;;;;;;;6.93;6.23;;;10.90;90.10;;;;;;6302396;28;20472;-69
2022/04/30 05:10:00;;;;;;;7.53;6.70;;;11.00;89.90;;;;;;6301128;28;20474;-69
2022/04/30 05:13:03;;;;;;;6.13;5.63;;;11.20;89.50;;;;;;6302432;28;20786;-68
2022/04/30 05:16:08;;;;;;;7.47;6.40;;;11.40;88.90;;;;;;6302147;28;20798;-69
2022/04/30 05:19:11;;;;;;;8.93;8.03;;;11.60;87.90;;;;;;6303452;28;20481;-68
2022/04/30 05:22:15;;;;;;;6.77;5.90;;;11.70;87.70;;;;;;6302605;28;20473;-68
2022/04/30 05:25:18;;;;;;;6.87;6.27;;;11.80;87.10;;;;;;6302073;28;20809;-69
2022/04/30 05:28:22;;;;;;;7.03;6.43;;;11.90;87.40;;;;;;6302275;28;20917;-69
2022/04/30 05:31:26;;;;;;;7.87;7.07;;;12.00;86.80;;;;;;6301866;28;20961;-69
2022/04/30 05:34:29;;;;;;;7.83;6.73;;;12.20;86.20;;;;;;6302382;28;20674;-69
2022/04/30 05:37:32;;;;;;;6.10;5.50;;;12.40;85.30;;;;;;6297747;28;20473;-67
2022/04/30 05:40:35;;;;;;;6.50;6.00;;;12.60;83.70;;;;;;6301806;28;20806;-68
2022/04/30 05:43:39;;;;;;;9.10;6.10;;;12.80;83.50;;;;;;6300322;28;20804;-67
2022/04/30 05:46:44;;;;;;;6.70;6.00;;;13.10;83.00;;;;;;6301885;28;20548;-67
2022/04/30 05:49:47;;;;;;;6.73;5.87;;;13.50;82.10;;;;;;6304874;28;20474;-67
2022/04/30 05:52:50;;;;;;;6.60;6.00;;;13.90;80.80;;;;;;6300246;28;20475;-67
2022/04/30 05:55:53;;;;;;;10.03;6.27;;;14.40;78.60;;;;;;6299893;28;20834;-67
2022/04/30 05:58:56;;;;;;;6.33;5.83;;;15.10;77.30;;;;;;6300100;28;20478;-68
2022/04/30 06:02:01;;;;;;;8.10;6.63;;;15.90;74.60;;;;;;6299953;28;20488;-68
2022/04/30 06:05:10;;;;;;;6.70;6.10;;;16.70;71.00;;;;;;6300034;28;20465;-68
2022/04/30 06:08:14;;;;;;;7.20;6.50;;;17.40;67.40;;;;;;6299984;28;20992;-68
2022/04/30 06:11:17;;;;;;;7.13;6.47;;;17.80;63.30;;;;;;6300503;28;20817;-68
2022/04/30 06:14:20;;;;;;;8.80;7.90;;;18.20;61.40;;;;;;6299921;28;20510;-68
2022/04/30 06:17:25;;;;;;;7.00;6.40;;;18.70;59.50;;;;;;6300041;28;20514;-68
2022/04/30 06:20:34;;;;;;;6.83;6.13;;;18.90;57.60;;;;;;6324926;28;20269;-68
2022/04/30 06:23:37;;;;;;;6.80;6.30;;;19.40;56.10;;;;;;6324588;28;20230;-67
2022/04/30 06:26:40;;;;;;;8.10;7.30;;;20.00;54.40;;;;;;6324740;28;20627;-67
2022/04/30 06:29:43;;;;;;;8.23;6.00;;;20.80;52.20;;;;;;6325384;28;20198;-68
2022/04/30 06:32:47;;;;;;;6.90;6.40;;;21.60;49.70;;;;;;6325127;28;20222;-68
2022/04/30 06:35:51;;;;;;;8.87;7.90;;;22.30;48.40;;;;;;6326935;28;20642;-69
2022/04/30 06:38:54;;;;;;;8.20;7.50;;;23.20;45.00;;;;;;6322586;28;20242;-68
2022/04/30 06:41:57;;;;;;;7.57;6.87;;;23.90;42.80;;;;;;6324951;28;20654;-68
2022/04/30 06:45:01;;;;;;;7.07;6.40;;;24.40;42.20;;;;;;6324805;28;20226;-68
2022/04/30 06:48:06;;;;;;;7.57;6.70;;;24.90;40.70;;;;;;6324577;28;20226;-68
2022/04/30 06:51:09;;;;;;;7.50;6.70;;;25.10;39.20;;;;;;6324798;28;20292;-68
2022/04/30 06:57:33;;;;;;;7.20;6.57;;;24.80;38.60;;;;;;6324652;28;20578;-69
2022/04/30 07:04:04;;;;;;;7.90;6.77;;;25.00;37.60;;;;;;6324026;28;20233;-68
2022/04/30 07:07:07;;;;;;;8.90;6.90;;;25.90;36.70;;;;;;6326415;28;20309;-68
2022/04/30 07:10:10;;;;;;;9.90;7.30;;;26.90;34.50;;;;;;6324603;28;20229;-70
2022/04/30 07:13:13;;;;;;;7.97;7.17;;;27.20;33.00;;;;;;6324987;28;20229;-68
2022/04/30 07:16:17;;;;;;;8.00;7.30;;;27.30;32.70;;;;;;6324491;28;20241;-69
2022/04/30 07:19:21;;;;;;;7.80;7.10;;;27.30;32.10;;;;;;6318520;28;20230;-68
2022/04/30 07:22:24;;;;;;;7.90;7.30;;;27.30;32.40;;;;;;6313493;28;20226;-68
2022/04/30 07:25:27;;;;;;;8.33;7.53;;;27.90;31.60;;;;;;6323403;28;20217;-68
2022/04/30 07:28:35;;;;;;;9.03;8.30;;;29.10;30.50;;;;;;6307236;28;20234;-70
2022/04/30 07:31:38;;;;;;;8.60;7.87;;;30.40;29.80;;;;;;6312013;28;20214;-69
2022/04/30 07:34:42;;;;;;;8.30;7.60;;;31.40;27.70;;;;;;6303129;28;20223;-68
2022/04/30 07:37:46;;;;;;;8.30;7.53;;;32.40;27.00;;;;;;6301372;28;20218;-68
2022/04/30 07:40:49;;;;;;;9.32;8.32;;;33.00;25.90;;;;;;6299894;28;20218;-69
2022/04/30 07:43:53;;;;;;;8.45;7.68;;;34.00;25.40;;;;;;6298102;28;20241;-69
2022/04/30 07:46:56;;;;;;;8.25;7.65;;;33.90;25.10;;;;;;6302845;28;20223;-69
2022/04/30 07:50:01;;;;;;;8.65;7.95;;;35.00;24.40;;;;;;6301764;28;20226;-68
2022/04/30 07:53:05;;;;;;;9.20;8.48;;;36.20;23.50;;;;;;6301674;28;20226;-69
2022/04/30 07:56:08;;;;;;;8.65;7.85;;;36.80;22.50;;;;;;6301217;28;20332;-69
2022/04/30 07:59:11;;;;;;;9.45;8.63;;;36.80;22.10;;;;;;6303407;28;20323;-69
2022/04/30 08:02:14;;;;;;;9.07;8.30;;;36.80;20.50;;;;;;6303128;28;20559;-69
2022/04/30 08:05:19;;;;;;;9.45;8.55;;;37.00;21.20;;;;;;6303850;28;20671;-69
2022/04/30 08:08:22;;;;;;;7.95;7.35;;;37.30;20.80;;;;;;6304095;28;20242;-69
2022/04/30 08:11:25;;;;;;;8.95;8.07;;;38.50;20.30;;;;;;6303923;28;20336;-69
2022/04/30 08:14:29;;;;;;;8.40;6.85;;;39.20;19.00;;;;;;6303162;28;20663;-69
2022/04/30 08:17:32;;;;;;;8.25;7.50;;;39.90;18.40;;;;;;6303554;28;20565;-69
2022/04/30 08:20:37;;;;;;;8.30;7.63;;;40.20;18.10;;;;;;6278361;28;20657;-69
2022/04/30 08:23:41;;;;;;;8.82;7.85;;;39.80;17.80;;;;;;6279512;28;20223;-68
2022/04/30 08:26:44;;;;;;;7.82;7.15;;;40.20;17.30;;;;;;6278727;28;20215;-68
2022/04/30 08:29:47;;;;;;;8.57;7.82;;;41.10;17.20;;;;;;6277620;28;20207;-69
2022/04/30 08:32:50;;;;;;;7.78;7.18;;;41.30;16.30;;;;;;6277108;28;20223;-69
2022/04/30 08:35:56;;;;;;;8.35;7.65;;;40.10;16.40;;;;;;6277724;28;20242;-69
2022/04/30 08:38:59;;;;;;;7.85;7.25;;;40.40;16.90;;;;;;6277977;28;20231;-69
2022/04/30 08:42:05;;;;;;;8.15;7.47;;;37.00;17.80;;;;;;6277609;28;20545;-69
2022/04/30 08:45:10;;;;;;;7.63;7.03;;;35.60;19.10;;;;;;6276424;28;20246;-69
2022/04/30 08:48:14;;;;;;;7.38;6.78;;;34.70;20.20;;;;;;6272784;28;20561;-69
2022/04/30 08:51:19;;;;;;;8.63;7.20;;;35.70;19.50;;;;;;6281437;28;20242;-69
2022/04/30 08:54:22;;;;;;;7.85;7.25;;;35.30;19.50;;;;;;6291021;28;20218;-69
2022/04/30 08:57:25;;;;;;;8.27;6.70;;;34.30;19.50;;;;;;6301136;28;20233;-69
2022/04/30 09:00:28;;;;;;;7.18;6.57;;;32.40;20.60;;;;;;6301421;28;20252;-68
2022/04/30 09:03:36;;;;;;;7.32;6.18;;;30.80;22.10;;;;;;6301196;28;20237;-68
2022/04/30 09:06:46;;;;;;;7.35;6.65;;;29.70;23.00;;;;;;6301244;28;20231;-68
2022/04/30 09:09:55;;;;;;;6.40;5.90;;;29.00;23.00;;;;;;6300881;28;20234;-68
2022/04/30 09:13:05;;;;;;;7.60;6.93;;;28.70;23.60;;;;;;6300728;28;20243;-68
2022/04/30 09:16:18;;;;;;;7.60;7.00;;;26.90;24.50;;;;;;6300716;28;20593;-68
2022/04/30 09:19:21;;;;;;;8.63;6.53;;;25.90;26.20;;;;;;6300814;28;20333;-69
2022/04/30 09:22:30;;;;;;;6.50;5.90;;;25.50;26.30;;;;;;6312597;28;20241;-69
2022/04/30 09:25:33;;;;;;;8.20;7.47;;;25.00;27.90;;;;;;6317067;28;20233;-69
2022/04/30 09:28:41;;;;;;;8.40;6.07;;;24.40;28.00;;;;;;6319268;28;20237;-67
2022/04/30 09:31:49;;;;;;;7.53;6.83;;;23.80;28.90;;;;;;6300425;28;20257;-69
2022/04/30 09:38:15;;;;;;;8.53;6.30;;;23.90;29.40;;;;;;6315575;28;20556;-68
2022/04/30 09:41:23;;;;;;;7.77;6.97;;;24.00;30.00;;;;;;6325731;28;20568;-67
2022/04/30 09:44:26;;;;;;;6.77;5.73;;;24.10;29.10;;;;;;6325830;28;20222;-67
2022/04/30 09:47:29;;;;;;;6.33;5.57;;;24.20;29.00;;;;;;6325930;28;20226;-67
2022/04/30 09:53:58;;;;;;;5.87;5.33;;;24.20;29.40;;;;;;6346637;28;20247;-67
2022/04/30 09:57:04;;;;;;;6.93;6.27;;;24.50;29.90;;;;;;6343491;28;20237;-68
2022/04/30 10:00:09;;;;;;;6.90;6.30;;;24.40;29.60;;;;;;6325725;28;20261;-67
2022/04/30 10:03:12;;;;;;;6.33;5.73;;;24.40;29.60;;;;;;6325527;28;20230;-69
2022/04/30 10:06:17;;;;;;;7.37;6.70;;;24.30;29.40;;;;;;6326001;28;20233;-68
2022/04/30 10:09:23;;;;;;;9.37;6.03;;;24.20;28.90;;;;;;6325638;28;20226;-69
2022/04/30 10:12:31;;;;;;;5.57;5.00;;;23.40;29.60;;;;;;6326657;28;20248;-69
2022/04/30 10:15:50;;;;;;;8.57;6.33;;;22.90;30.00;;;;;;6324943;28;20230;-69
2022/04/30 10:19:10;;;;;;;5.33;4.93;;;22.90;29.50;;;;;;6324956;28;20245;-70
2022/04/30 10:22:15;;;;;;;6.00;5.47;;;22.70;29.40;;;;;;6325543;28;20575;-69
2022/04/30 10:25:31;;;;;;;5.63;4.97;;;22.60;29.40;;;;;;6325123;28;20230;-69
2022/04/30 10:28:34;;;;;;;8.10;4.60;;;22.50;28.80;;;;;;6324260;28;20230;-68
2022/04/30 10:31:43;;;;;;;6.40;5.80;;;22.40;29.10;;;;;;6324403;28;20230;-68
2022/04/30 10:34:52;;;;;;;5.97;5.37;;;22.00;30.20;;;;;;6325313;28;20234;-68
2022/04/30 10:38:07;;;;;;;5.87;5.40;;;22.00;30.90;;;;;;6327801;28;20238;-68
2022/04/30 10:41:12;;;;;;;6.10;5.50;;;22.40;31.00;;;;;;6326850;28;20230;-68
2022/04/30 10:44:17;;;;;;;5.57;5.07;;;22.80;29.90;;;;;;6325285;28;20241;-67
2022/04/30 10:47:20;;;;;;;8.73;5.83;;;22.50;30.20;;;;;;6324725;28;20231;-67
2022/04/30 10:50:24;;;;;;;5.67;5.17;;;22.50;30.10;;;;;;6324276;28;20230;-68
2022/04/30 10:53:29;;;;;;;6.23;5.63;;;22.80;30.40;;;;;;6324833;28;20234;-67
2022/04/30 10:56:33;;;;;;;7.90;7.30;;;22.60;30.30;;;;;;6320137;28;20248;-67
2022/04/30 10:59:36;;;;;;;7.07;6.23;;;22.20;29.90;;;;;;6322807;27;20229;-66
2022/04/30 11:02:40;;;;;;;8.10;6.57;;;22.00;31.00;;;;;;6321591;28;20662;-67
2022/04/30 11:05:43;;;;;;;6.70;6.10;;;22.20;31.10;;;;;;6306531;28;20772;-67
2022/04/30 11:08:57;;;;;;;8.60;6.33;;;22.20;31.70;;;;;;6289920;28;20238;-67
2022/04/30 11:12:01;;;;;;;7.30;6.67;;;22.50;31.80;;;;;;6316943;28;20227;-67
2022/04/30 11:15:05;;;;;;;7.00;6.30;;;22.70;30.90;;;;;;6314352;28;20230;-68
2022/04/30 11:18:09;;;;;;;7.40;6.70;;;22.90;30.40;;;;;;6306931;28;20223;-68
2022/04/30 11:21:12;;;;;;;6.67;5.97;;;23.20;30.00;;;;;;6321680;28;20690;-68
2022/04/30 11:24:24;;;;;;;5.80;5.30;;;23.20;29.90;;;;;;6315869;28;20241;-67
2022/04/30 11:27:31;;;;;;;6.80;6.20;;;23.40;30.20;;;;;;6303579;28;20306;-67
2022/04/30 11:30:37;;;;;;;5.70;5.20;;;23.40;29.40;;;;;;6327807;28;20231;-67
2022/04/30 11:33:41;;;;;;;6.23;5.73;;;23.30;29.60;;;;;;6328234;28;20241;-67
2022/04/30 11:36:46;;;;;;;5.93;5.30;;;23.40;29.10;;;;;;6328907;28;20317;-67
2022/04/30 11:39:49;;;;;;;7.07;6.07;;;23.60;29.10;;;;;;6328757;28;20248;-67
2022/04/30 11:42:57;;;;;;;6.53;6.03;;;23.80;29.20;;;;;;6328144;28;20384;-67
2022/04/30 11:46:01;;;;;;;5.23;4.83;;;23.70;28.90;;;;;;6328388;28;20542;-67
2022/04/30 11:49:09;;;;;;;5.83;5.23;;;23.60;28.80;;;;;;6328375;28;20542;-67
2022/04/30 11:52:32;;;;;;;6.53;5.10;;;23.30;28.70;;;;;;6327924;28;20577;-66
2022/04/30 11:55:38;;;;;;;5.53;5.10;;;23.10;29.20;;;;;;6304275;28;20237;-66
2022/04/30 11:58:44;;;;;;;6.10;5.60;;;23.40;29.00;;;;;;6303572;28;20227;-68
2022/04/30 12:01:50;;;;;;;6.47;5.83;;;23.40;28.50;;;;;;6303408;28;20951;-68
2022/04/30 12:04:54;;;;;;;5.50;4.97;;;22.90;29.00;;;;;;6303165;28;20239;-68
2022/04/30 12:08:01;;;;;;;5.47;4.97;;;23.00;28.70;;;;;;6302373;28;20273;-67
2022/04/30 12:11:05;;;;;;;4.80;4.40;;;23.20;28.20;;;;;;6302615;28;20546;-68
2022/04/30 12:14:11;;;;;;;5.13;4.63;;;23.30;28.10;;;;;;6311061;28;20304;-68
2022/04/30 12:17:14;;;;;;;4.77;4.30;;;23.40;28.20;;;;;;6328644;28;20222;-67
2022/04/30 12:27:02;;;;;;;5.53;4.60;;;23.10;28.10;;;;;;6303356;28;20234;-67
2022/04/30 12:30:14;;;;;;;5.00;4.60;;;23.00;28.70;;;;;;6323170;28;20229;-68
2022/04/30 12:33:17;;;;;;;4.87;4.07;;;23.30;28.80;;;;;;6303367;28;20268;-67
2022/04/30 12:36:23;;;;;;;5.90;5.40;;;23.20;28.70;;;;;;6302373;28;20281;-67
2022/04/30 12:39:27;;;;;;;5.20;4.80;;;23.20;28.70;;;;;;6302304;28;20231;-66
2022/04/30 12:42:30;;;;;;;5.13;4.33;;;23.30;28.40;;;;;;6303456;28;20231;-67
2022/04/30 12:45:37;;;;;;;6.07;5.07;;;23.40;28.60;;;;;;6326026;28;20235;-67
2022/04/30 12:48:40;;;;;;;4.60;4.20;;;23.30;29.00;;;;;;6326950;28;20241;-67
2022/04/30 12:51:45;;;;;;;4.93;4.43;;;23.00;28.80;;;;;;6326955;28;20230;-67
2022/04/30 12:54:50;;;;;;;4.90;4.47;;;22.80;28.90;;;;;;6326536;28;20706;-67
2022/04/30 12:57:53;;;;;;;6.33;5.73;;;22.90;29.00;;;;;;6327099;28;20238;-67
2022/04/30 13:00:57;;;;;;;5.20;4.70;;;23.00;29.10;;;;;;6326943;28;20215;-68
2022/04/30 13:04:01;;;;;;;4.53;4.13;;;23.10;28.90;;;;;;6317849;28;20561;-68
2022/04/30 13:07:06;;;;;;;5.23;4.73;;;23.20;28.90;;;;;;6322725;28;20230;-67
2022/04/30 13:13:32;;;;;;;5.80;4.40;;;23.30;28.90;;;;;;6320050;28;20227;-67
2022/04/30 13:16:37;;;;;;;4.27;3.97;;;22.90;28.90;;;;;;6325677;28;20321;-68
2022/04/30 13:19:40;;;;;;;4.40;4.00;;;22.80;29.40;;;;;;6324629;28;20231;-69
2022/04/30 13:22:44;;;;;;;5.70;4.00;;;22.80;29.50;;;;;;6306907;28;20570;-68
2022/04/30 13:25:48;;;;;;;5.43;4.70;;;22.80;28.80;;;;;;6300270;28;20251;-68
2022/04/30 13:28:51;;;;;;;4.60;3.90;;;22.90;28.70;;;;;;6311618;28;20232;-67
2022/04/30 13:31:55;;;;;;;4.70;4.30;;;22.70;28.90;;;;;;6324721;28;20231;-68
2022/04/30 13:34:59;;;;;;;5.10;4.70;;;22.70;29.60;;;;;;6325456;28;20575;-68
2022/04/30 13:38:02;;;;;;;5.73;4.80;;;22.50;29.20;;;;;;6325685;28;20237;-68
2022/04/30 13:41:06;;;;;;;5.93;3.93;;;22.60;29.60;;;;;;6326772;28;20231;-68
2022/04/30 13:44:09;;;;;;;4.60;4.20;;;22.50;29.30;;;;;;6326208;28;20249;-68
2022/04/30 13:47:14;;;;;;;5.13;4.70;;;22.50;29.40;;;;;;6325921;28;20226;-68
2022/04/30 13:50:17;;;;;;;5.00;4.23;;;22.00;30.20;;;;;;6325662;28;20241;-68
2022/04/30 13:53:20;;;;;;;7.00;4.60;;;22.00;30.80;;;;;;6324957;28;20226;-68
2022/04/30 13:56:24;;;;;;;3.80;3.50;;;22.10;31.10;;;;;;6325342;28;20241;-68
2022/04/30 13:59:33;;;;;;;5.23;4.10;;;21.80;30.50;;;;;;6325487;28;20229;-68
2022/04/30 14:02:39;;;;;;;4.97;3.97;;;21.80;30.70;;;;;;6320195;28;20232;-68
2022/04/30 14:05:42;;;;;;;4.70;4.40;;;22.00;30.00;;;;;;6325023;28;20200;-68
2022/04/30 14:08:45;;;;;;;4.83;4.33;;;22.10;30.00;;;;;;6325181;28;20229;-68
2022/04/30 14:11:48;;;;;;;4.10;3.80;;;22.00;29.70;;;;;;6325163;28;20210;-68
2022/04/30 14:14:56;;;;;;;4.40;4.00;;;21.90;29.50;;;;;;6326057;28;20237;-68
2022/04/30 14:18:16;;;;;;;8.83;4.80;;;22.00;29.80;;;;;;6325636;28;20237;-68
2022/04/30 14:21:19;;;;;;;4.13;3.73;;;21.60;29.60;;;;;;6325040;28;20234;-68
2022/04/30 14:24:22;;;;;;;5.53;3.90;;;21.50;30.00;;;;;;6324849;28;20313;-68
2022/04/30 14:27:30;;;;;;;4.40;4.00;;;21.50;29.90;;;;;;6325244;28;20309;-68
2022/04/30 14:30:34;;;;;;;4.07;3.70;;;21.50;29.50;;;;;;6324481;28;20226;-68
2022/04/30 14:33:39;;;;;;;3.60;3.40;;;21.40;29.30;;;;;;6325466;28;20230;-68
2022/04/30 14:36:42;;;;;;;4.60;4.03;;;21.10;29.80;;;;;;6325024;28;20222;-68
2022/04/30 14:39:45;;;;;;;4.13;3.37;;;21.30;29.60;;;;;;6324654;28;20678;-68
2022/04/30 14:42:49;;;;;;;3.80;3.50;;;21.30;29.30;;;;;;6326142;28;20229;-68
2022/04/30 14:45:52;;;;;;;3.87;3.57;;;21.30;29.30;;;;;;6330008;28;20701;-65
2022/04/30 14:48:57;;;;;;;6.07;3.60;;;21.20;28.80;;;;;;6329447;28;20314;-65
2022/04/30 14:52:00;;;;;;;4.07;3.70;;;21.30;29.00;;;;;;6330166;28;20226;-65
2022/04/30 14:55:04;;;;;;;3.53;3.07;;;21.40;28.90;;;;;;6344769;28;20233;-65
2022/04/30 14:58:08;;;;;;;3.40;3.10;;;21.20;29.50;;;;;;6348676;28;20222;-64
2022/04/30 15:01:11;;;;;;;5.10;3.50;;;21.20;28.80;;;;;;6348356;28;20230;-64
2022/04/30 15:04:15;;;;;;;5.10;3.60;;;21.30;29.00;;;;;;6330792;28;20234;-64
2022/04/30 15:07:19;;;;;;;4.00;3.60;;;21.40;29.00;;;;;;6324476;28;20235;-64
2022/04/30 15:10:23;;;;;;;3.90;3.57;;;21.50;29.20;;;;;;6328483;28;20230;-64
2022/04/30 15:13:26;;;;;;;4.13;3.83;;;21.40;29.80;;;;;;6329568;28;20230;-64
2022/04/30 15:16:29;;;;;;;4.00;3.63;;;21.50;30.20;;;;;;6328787;28;20238;-64
2022/04/30 15:19:34;;;;;;;4.00;3.70;;;21.50;30.00;;;;;;6330414;28;20309;-66
2022/04/30 15:22:37;;;;;;;4.23;3.33;;;21.50;30.20;;;;;;6328630;28;20234;-65
2022/04/30 15:25:41;;;;;;;4.03;3.73;;;21.20;30.80;;;;;;6328884;28;20364;-65
2022/04/30 15:28:45;;;;;;;3.53;3.23;;;21.10;31.50;;;;;;6328388;28;20222;-65
2022/04/30 15:32:10;;;;;;;4.80;3.60;;;21.10;30.40;;;;;;6329763;28;20246;-65
2022/04/30 15:35:14;;;;;;;4.50;3.70;;;21.10;30.00;;;;;;6316695;28;20214;-64
2022/04/30 15:38:17;;;;;;;4.50;4.10;;;21.20;30.00;;;;;;6315345;28;20304;-64
2022/04/30 15:41:24;;;;;;;4.80;3.67;;;21.00;29.90;;;;;;6314452;28;20572;-64
2022/04/30 15:44:28;;;;;;;5.20;3.53;;;21.10;30.10;;;;;;6302667;28;20239;-63
2022/04/30 15:54:15;;;;;;;3.73;3.37;;;21.30;29.60;;;;;;6296414;28;20240;-65
2022/04/30 15:57:19;;;;;;;3.90;3.50;;;21.40;29.90;;;;;;6277973;28;20558;-64
2022/04/30 16:00:22;;;;;;;3.53;3.20;;;21.30;29.60;;;;;;6277896;28;20687;-66
2022/04/30 16:03:25;;;;;;;4.73;3.30;;;21.10;29.80;;;;;;6278616;28;20243;-64
2022/04/30 16:06:30;;;;;;;4.13;3.77;;;21.10;29.80;;;;;;6290109;28;20234;-64
2022/04/30 16:09:33;;;;;;;3.60;3.27;;;21.10;29.70;;;;;;6301884;28;20547;-65
2022/04/30 16:12:36;;;;;;;4.17;3.87;;;20.90;29.80;;;;;;6288183;28;20354;-65
2022/04/30 16:15:41;;;;;;;3.77;3.47;;;20.80;30.10;;;;;;6285313;28;20246;-65
2022/04/30 16:18:44;;;;;;;4.00;3.70;;;20.80;30.80;;;;;;6277829;28;20228;-63
2022/04/30 16:21:48;;;;;;;4.10;3.70;;;20.80;30.60;;;;;;6278636;28;20227;-64
2022/04/30 16:24:52;;;;;;;5.00;4.60;;;20.90;31.10;;;;;;6278063;28;20227;-64
2022/04/30 16:27:56;;;;;;;6.13;4.40;;;20.60;31.60;;;;;;6280119;28;20230;-62
2022/04/30 16:30:59;;;;;;;3.97;3.70;;;20.50;32.30;;;;;;6301944;28;20227;-64
2022/04/30 16:34:02;;;;;;;4.63;3.93;;;20.40;31.80;;;;;;6301461;28;20231;-63
2022/04/30 16:37:07;;;;;;;3.83;3.37;;;20.50;31.60;;;;;;6301995;28;20242;-63
2022/04/30 16:40:11;;;;;;;4.23;3.80;;;20.50;32.00;;;;;;6301827;28;20730;-64
2022/04/30 16:43:14;;;;;;;3.70;3.40;;;20.50;32.00;;;;;;6301816;28;20242;-64
2022/04/30 16:46:18;;;;;;;3.90;3.60;;;20.50;32.10;;;;;;6302009;28;20235;-64
2022/04/30 16:49:27;;;;;;;4.13;3.73;;;20.40;33.10;;;;;;6301946;28;20719;-63